createdAt,value
2018-12-25T00:00:10.606Z,7.40
2018-12-25T00:02:39.561Z,8.10
2018-12-25T00:05:08.322Z,7.00
2018-12-25T00:07:37.309Z,7.57
2018-12-25T00:10:06.370Z,6.40
2018-12-25T00:12:35.065Z,6.33
2018-12-25T00:15:04.276Z,6.97
2018-12-25T00:17:33.220Z,6.10
2018-12-25T00:20:02.193Z,5.77
2018-12-25T00:22:31.398Z,6.27
2018-12-25T00:25:00.338Z,6.30
2018-12-25T00:27:29.065Z,6.90
2018-12-25T00:29:57.836Z,6.13
2018-12-25T00:32:26.553Z,7.10
2018-12-25T00:34:55.535Z,5.73
2018-12-25T00:37:24.252Z,6.80
2018-12-25T00:39:53.237Z,6.10
2018-12-25T00:42:21.937Z,6.80
2018-12-25T00:44:51.152Z,5.77
2018-12-25T00:47:20.357Z,6.80
2018-12-25T00:49:49.317Z,6.67
2018-12-25T00:52:18.529Z,6.63
2018-12-25T00:54:47.245Z,7.70
2018-12-25T00:57:16.188Z,7.17
2018-12-25T00:59:45.347Z,7.50
2018-12-25T01:02:14.137Z,6.30
2018-12-25T01:04:44.513Z,6.67
2018-12-25T01:07:13.243Z,6.13
2018-12-25T01:09:42.431Z,5.77
2018-12-25T01:12:11.470Z,6.20
2018-12-25T01:14:40.407Z,6.50
2018-12-25T01:17:09.377Z,6.27
2018-12-25T01:19:38.557Z,6.40
2018-12-25T01:22:07.543Z,6.40
2018-12-25T01:24:36.510Z,7.60
2018-12-25T01:27:05.213Z,6.80
2018-12-25T01:29:34.008Z,6.53
2018-12-25T01:32:02.705Z,6.40
2018-12-25T01:34:31.438Z,7.30
2018-12-25T01:37:00.137Z,7.40
2018-12-25T01:39:29.094Z,6.60
2018-12-25T01:41:57.792Z,7.20
2018-12-25T01:44:26.515Z,7.33
2018-12-25T01:46:55.462Z,6.37
2018-12-25T01:49:31.554Z,6.03
2018-12-25T01:51:54.884Z,6.37
2018-12-25T01:54:24.080Z,7.10
2018-12-25T01:56:53.019Z,6.27
2018-12-25T01:59:21.729Z,6.30
2018-12-25T02:01:50.438Z,6.53
2018-12-25T02:04:19.649Z,6.00
2018-12-25T02:06:48.605Z,6.17
2018-12-25T02:09:17.341Z,6.60
2018-12-25T02:11:46.297Z,6.77
2018-12-25T02:14:15.254Z,6.13
2018-12-25T02:16:44.202Z,6.40
2018-12-25T02:19:13.169Z,6.20
2018-12-25T02:21:41.858Z,6.33
2018-12-25T02:24:10.901Z,6.30
2018-12-25T02:26:39.593Z,6.50
2018-12-25T02:29:08.328Z,5.93
2018-12-25T02:31:37.017Z,6.70
2018-12-25T02:34:05.983Z,5.57
2018-12-25T02:36:34.949Z,5.90
2018-12-25T02:39:05.845Z,6.47
2018-12-25T02:41:34.545Z,6.00
2018-12-25T02:44:03.274Z,6.80
2018-12-25T02:46:32.749Z,6.47
2018-12-25T02:49:01.479Z,6.07
2018-12-25T02:51:30.294Z,6.50
2018-12-25T02:53:59.264Z,5.80
2018-12-25T02:56:28.278Z,5.93
2018-12-25T02:58:56.981Z,5.87
2018-12-25T03:01:25.949Z,5.23
2018-12-25T03:03:54.777Z,5.80
2018-12-25T03:06:23.480Z,5.27
2018-12-25T03:08:52.453Z,4.90
2018-12-25T03:11:21.177Z,5.53
2018-12-25T03:13:49.909Z,5.17
2018-12-25T03:16:18.630Z,5.13
2018-12-25T03:18:47.345Z,5.43
2018-12-25T03:21:16.086Z,4.53
2018-12-25T03:23:44.813Z,5.07
2018-12-25T03:26:13.545Z,4.90
2018-12-25T03:28:43.057Z,4.73
2018-12-25T03:31:11.791Z,5.20
2018-12-25T03:33:40.778Z,4.73
2018-12-25T03:36:09.498Z,4.83
2018-12-25T03:38:38.449Z,4.87
2018-12-25T03:41:08.053Z,4.83
2018-12-25T03:43:37.016Z,4.97
2018-12-25T03:46:06.002Z,4.57
2018-12-25T03:48:34.794Z,4.90
2018-12-25T03:51:03.548Z,5.20
2018-12-25T03:53:32.290Z,5.30
2018-12-25T03:56:01.231Z,4.90
2018-12-25T03:58:29.955Z,4.77
2018-12-25T04:00:59.165Z,4.90
2018-12-25T04:03:27.926Z,5.77
2018-12-25T04:05:56.653Z,5.83
2018-12-25T04:08:25.353Z,5.57
2018-12-25T04:10:54.341Z,5.37
2018-12-25T04:13:23.288Z,5.40
2018-12-25T04:15:52.262Z,5.10
2018-12-25T04:18:21.216Z,5.20
2018-12-25T04:20:50.208Z,5.87
2018-12-25T04:23:19.162Z,4.73
2018-12-25T04:25:48.143Z,5.27
2018-12-25T04:28:17.139Z,4.90
2018-12-25T04:30:45.873Z,4.93
2018-12-25T04:33:14.939Z,4.80
2018-12-25T04:35:43.913Z,5.27
2018-12-25T04:38:13.074Z,4.57
2018-12-25T04:40:41.822Z,4.80
2018-12-25T04:43:10.533Z,4.90
2018-12-25T04:45:39.277Z,4.97
2018-12-25T04:48:08.218Z,6.13
2018-12-25T04:50:37.173Z,4.90
2018-12-25T04:53:06.151Z,4.83
2018-12-25T04:55:34.853Z,4.67
2018-12-25T04:58:03.581Z,4.73
2018-12-25T05:00:32.277Z,4.70
2018-12-25T05:03:01.003Z,5.20
2018-12-25T05:05:29.945Z,4.77
2018-12-25T05:07:58.689Z,5.30
2018-12-25T05:10:27.637Z,4.30
2018-12-25T05:12:56.345Z,5.53
2018-12-25T05:15:25.084Z,4.40
2018-12-25T05:17:54.033Z,5.13
2018-12-25T05:20:22.761Z,5.13
2018-12-25T05:22:51.470Z,4.23
2018-12-25T05:25:20.492Z,5.37
2018-12-25T05:27:49.450Z,5.63
2018-12-25T05:30:18.178Z,5.03
2018-12-25T05:32:47.189Z,8.33
2018-12-25T05:35:15.897Z,5.83
2018-12-25T05:37:44.877Z,5.50
2018-12-25T05:40:14.174Z,5.40
2018-12-25T05:42:43.150Z,4.73
2018-12-25T05:45:12.097Z,5.07
2018-12-25T05:47:41.334Z,5.03
2018-12-25T05:50:10.062Z,5.10
2018-12-25T05:52:39.270Z,5.23
2018-12-25T05:55:08.220Z,5.10
2018-12-25T05:57:37.162Z,5.10
2018-12-25T06:00:06.929Z,6.07
2018-12-25T06:02:35.900Z,5.10
2018-12-25T06:05:04.737Z,5.10
2018-12-25T06:07:33.680Z,6.17
2018-12-25T06:10:02.416Z,6.00
2018-12-25T06:12:31.392Z,5.70
2018-12-25T06:15:00.278Z,5.00
2018-12-25T06:17:29.478Z,6.40
2018-12-25T06:19:58.793Z,7.20
2018-12-25T06:22:27.497Z,7.70
2018-12-25T06:24:56.997Z,6.60
2018-12-25T06:27:25.977Z,6.30
2018-12-25T06:29:54.685Z,5.70
2018-12-25T06:32:23.418Z,5.60
2018-12-25T06:34:52.357Z,6.60
2018-12-25T06:37:21.306Z,6.20
2018-12-25T06:39:50.038Z,6.70
2018-12-25T06:42:18.829Z,6.00
2018-12-25T06:44:47.599Z,6.33
2018-12-25T06:47:16.333Z,5.90
2018-12-25T06:49:45.282Z,5.73
2018-12-25T06:52:14.000Z,6.57
2018-12-25T06:54:42.762Z,6.40
2018-12-25T06:57:11.557Z,6.87
2018-12-25T06:59:40.283Z,6.80
2018-12-25T07:02:09.238Z,7.17
2018-12-25T07:04:37.961Z,6.53
2018-12-25T07:07:07.176Z,6.93
2018-12-25T07:09:35.919Z,6.93
2018-12-25T07:12:04.605Z,6.47
2018-12-25T07:14:33.601Z,6.47
2018-12-25T07:17:02.541Z,6.03
2018-12-25T07:19:31.500Z,6.33
2018-12-25T07:22:01.214Z,7.10
2018-12-25T07:24:30.147Z,7.87
2018-12-25T07:26:58.857Z,6.40
2018-12-25T07:29:28.092Z,6.83
2018-12-25T07:31:57.315Z,7.50
2018-12-25T07:34:26.293Z,7.30
2018-12-25T07:36:55.265Z,8.10
2018-12-25T07:39:23.977Z,8.27
2018-12-25T07:41:52.682Z,7.30
2018-12-25T07:44:21.674Z,7.90
2018-12-25T07:46:50.405Z,7.50
2018-12-25T07:49:19.422Z,7.80
2018-12-25T07:51:48.364Z,8.47
2018-12-25T07:54:17.185Z,9.07
2018-12-25T07:56:45.905Z,7.90
2018-12-25T07:59:15.101Z,8.17
2018-12-25T08:01:44.157Z,7.77
2018-12-25T08:04:12.895Z,9.10
2018-12-25T08:06:42.137Z,8.37
2018-12-25T08:09:11.153Z,8.20
2018-12-25T08:11:40.169Z,7.77
2018-12-25T08:14:08.910Z,7.60
2018-12-25T08:16:37.902Z,8.13
2018-12-25T08:19:06.933Z,8.60
2018-12-25T08:21:35.886Z,7.60
2018-12-25T08:24:06.618Z,6.80
2018-12-25T08:26:35.433Z,7.43
2018-12-25T08:29:04.403Z,8.10
2018-12-25T08:31:33.152Z,7.47
2018-12-25T08:34:02.409Z,7.07
2018-12-25T08:36:31.629Z,6.33
2018-12-25T08:39:00.376Z,6.57
2018-12-25T08:41:29.117Z,7.33
2018-12-25T08:43:58.320Z,7.00
2018-12-25T08:46:27.285Z,7.60
2018-12-25T08:48:56.016Z,6.90
2018-12-25T08:51:44.449Z,7.37
2018-12-25T08:54:13.430Z,6.50
2018-12-25T08:56:42.382Z,8.10
2018-12-25T08:59:11.368Z,6.50
2018-12-25T09:01:40.657Z,7.50
2018-12-25T09:04:09.360Z,7.53
2018-12-25T09:06:38.510Z,7.20
2018-12-25T09:09:08.252Z,8.20
2018-12-25T09:11:37.034Z,7.03
2018-12-25T09:14:06.061Z,6.70
2018-12-25T09:16:34.810Z,7.23
2018-12-25T09:19:03.541Z,6.53
2018-12-25T09:21:32.390Z,7.90
2018-12-25T09:24:01.346Z,7.20
2018-12-25T09:26:30.061Z,6.97
2018-12-25T09:28:58.792Z,6.90
2018-12-25T09:31:27.507Z,6.53
2018-12-25T09:33:56.296Z,7.67
2018-12-25T09:36:25.260Z,7.13
2018-12-25T09:38:53.986Z,7.00
2018-12-25T09:41:22.942Z,7.50
2018-12-25T09:43:51.674Z,7.90
2018-12-25T09:46:20.642Z,7.80
2018-12-25T09:48:49.337Z,6.57
2018-12-25T09:51:20.085Z,7.03
2018-12-25T09:53:48.753Z,6.60
2018-12-25T09:56:17.982Z,6.63
2018-12-25T09:58:46.941Z,6.40
2018-12-25T10:01:15.650Z,7.33
2018-12-25T10:03:44.660Z,7.27
2018-12-25T10:06:13.666Z,6.63
2018-12-25T10:08:42.904Z,6.10
2018-12-25T10:11:11.612Z,7.10
2018-12-25T10:13:40.455Z,7.03
2018-12-25T10:16:09.733Z,7.07
2018-12-25T10:18:38.769Z,6.50
2018-12-25T10:21:07.736Z,5.83
2018-12-25T10:23:36.445Z,7.00
2018-12-25T10:26:05.177Z,6.90
2018-12-25T10:28:33.990Z,7.33
2018-12-25T10:31:02.962Z,7.50
2018-12-25T10:33:31.664Z,6.80
2018-12-25T10:36:01.518Z,7.37
2018-12-25T10:38:30.296Z,7.10
2018-12-25T10:40:59.538Z,7.23
2018-12-25T10:43:28.264Z,7.17
2018-12-25T10:45:57.233Z,6.90
2018-12-25T10:48:25.965Z,7.73
2018-12-25T10:50:54.686Z,6.53
2018-12-25T10:53:23.649Z,6.40
2018-12-25T10:55:52.405Z,6.43
2018-12-25T10:58:21.138Z,6.77
2018-12-25T11:00:53.868Z,8.10
2018-12-25T11:03:22.584Z,6.77
2018-12-25T11:05:51.575Z,6.23
2018-12-25T11:08:20.307Z,6.90
2018-12-25T11:10:49.414Z,6.00
2018-12-25T11:13:18.457Z,6.43
2018-12-25T11:15:47.209Z,7.10
2018-12-25T11:18:15.973Z,6.57
2018-12-25T11:20:45.157Z,7.00
2018-12-25T11:23:13.861Z,6.70
2018-12-25T11:25:42.865Z,6.43
2018-12-25T11:28:11.809Z,6.30
2018-12-25T11:30:40.537Z,6.50
2018-12-25T11:33:09.486Z,6.23
2018-12-25T11:35:38.213Z,6.50
2018-12-25T11:38:07.185Z,7.37
2018-12-25T11:40:36.136Z,6.80
2018-12-25T11:43:04.891Z,6.90
2018-12-25T11:45:33.834Z,7.60
2018-12-25T11:48:02.785Z,7.10
2018-12-25T11:50:31.981Z,6.17
2018-12-25T11:53:00.717Z,8.37
2018-12-25T11:55:29.684Z,8.10
2018-12-25T11:57:58.911Z,6.70
2018-12-25T12:00:27.939Z,8.77
2018-12-25T12:02:56.663Z,6.90
2018-12-25T12:05:25.500Z,7.10
2018-12-25T12:07:54.446Z,7.50
2018-12-25T12:10:23.173Z,7.40
2018-12-25T12:12:51.896Z,6.30
2018-12-25T12:15:20.944Z,7.03
2018-12-25T12:17:49.949Z,7.80
2018-12-25T12:20:18.677Z,7.13
2018-12-25T12:22:47.670Z,6.93
2018-12-25T12:25:16.408Z,7.30
2018-12-25T12:27:45.385Z,7.07
2018-12-25T12:30:14.125Z,7.20
2018-12-25T12:32:42.848Z,7.93
2018-12-25T12:35:11.589Z,9.80
2018-12-25T12:37:40.354Z,7.70
2018-12-25T12:40:09.086Z,7.13
2018-12-25T12:42:38.029Z,6.90
2018-12-25T12:45:07.617Z,7.37
2018-12-25T12:47:36.569Z,7.90
2018-12-25T12:50:06.425Z,6.70
2018-12-25T12:52:35.169Z,6.80
2018-12-25T12:55:03.981Z,7.67
2018-12-25T12:57:34.110Z,6.60
2018-12-25T13:00:03.168Z,7.40
2018-12-25T13:02:31.918Z,8.07
2018-12-25T13:05:00.665Z,7.67
2018-12-25T13:07:29.368Z,7.20
2018-12-25T13:09:58.444Z,7.60
2018-12-25T13:12:27.401Z,7.20
2018-12-25T13:14:56.105Z,7.80
2018-12-25T13:17:24.853Z,7.37
2018-12-25T13:19:53.829Z,7.80
2018-12-25T13:22:23.029Z,6.57
2018-12-25T13:24:51.733Z,7.33
2018-12-25T13:27:20.480Z,6.90
2018-12-25T13:29:50.327Z,6.80
2018-12-25T13:32:19.714Z,7.60
2018-12-25T13:34:48.433Z,7.03
2018-12-25T13:37:17.153Z,6.70
2018-12-25T13:39:46.133Z,6.80
2018-12-25T13:42:15.253Z,7.33
2018-12-25T13:44:43.981Z,6.80
2018-12-25T13:47:13.180Z,7.23
2018-12-25T13:49:41.944Z,7.30
2018-12-25T13:52:10.652Z,7.30
2018-12-25T13:54:39.410Z,7.83
2018-12-25T13:57:08.123Z,6.97
2018-12-25T13:59:36.865Z,6.93
2018-12-25T14:02:05.802Z,6.97
2018-12-25T14:04:34.772Z,6.93
2018-12-25T14:07:03.724Z,8.00
2018-12-25T14:09:32.432Z,7.57
2018-12-25T14:12:01.410Z,7.57
2018-12-25T14:14:30.146Z,8.30
2018-12-25T14:16:59.112Z,7.83
2018-12-25T14:19:27.817Z,9.03
2018-12-25T14:21:56.537Z,8.33
2018-12-25T14:24:25.310Z,8.07
2018-12-25T14:26:54.050Z,8.17
2018-12-25T14:29:23.021Z,8.80
2018-12-25T14:31:52.030Z,9.50
2018-12-25T14:34:20.737Z,8.63
2018-12-25T14:36:49.955Z,8.33
2018-12-25T14:39:18.917Z,8.70
2018-12-25T14:41:47.749Z,10.27
2018-12-25T14:44:16.949Z,10.17
2018-12-25T14:46:45.959Z,9.13
2018-12-25T14:49:14.897Z,9.90
2018-12-25T14:51:43.610Z,8.97
2018-12-25T14:54:12.344Z,14.40
2018-12-25T14:56:41.394Z,13.63
2018-12-25T14:59:10.096Z,10.73
2018-12-25T15:01:38.897Z,8.53
2018-12-25T15:04:08.098Z,8.10
2018-12-25T15:06:36.827Z,9.20
2018-12-25T15:09:06.748Z,9.23
2018-12-25T15:11:35.717Z,9.37
2018-12-25T15:14:04.429Z,9.20
2018-12-25T15:16:33.151Z,9.10
2018-12-25T15:19:01.878Z,8.63
2018-12-25T15:21:30.602Z,8.47
2018-12-25T15:23:59.317Z,9.03
2018-12-25T15:26:28.297Z,8.90
2018-12-25T15:28:57.726Z,9.73
2018-12-25T15:31:27.018Z,9.23
2018-12-25T15:33:55.853Z,9.67
2018-12-25T15:36:24.581Z,9.47
2018-12-25T15:38:53.553Z,9.60
2018-12-25T15:41:22.533Z,9.10
2018-12-25T15:43:51.514Z,9.30
2018-12-25T15:46:20.250Z,9.47
2018-12-25T15:48:48.977Z,10.53
2018-12-25T15:51:17.675Z,10.53
2018-12-25T15:53:46.405Z,10.50
2018-12-25T15:56:15.113Z,8.53
2018-12-25T15:58:44.072Z,9.23
2018-12-25T16:01:13.047Z,9.80
2018-12-25T16:03:41.764Z,8.83
2018-12-25T16:06:10.497Z,9.77
2018-12-25T16:08:39.725Z,10.27
2018-12-25T16:11:08.544Z,9.70
2018-12-25T16:13:37.285Z,10.50
2018-12-25T16:16:06.239Z,9.97
2018-12-25T16:18:35.448Z,10.07
2018-12-25T16:21:04.150Z,10.67
2018-12-25T16:23:32.864Z,10.20
2018-12-25T16:26:01.585Z,9.80
2018-12-25T16:28:30.827Z,9.63
2018-12-25T16:30:59.564Z,9.77
2018-12-25T16:33:28.276Z,8.80
2018-12-25T16:35:57.012Z,8.57
2018-12-25T16:38:25.764Z,10.17
2018-12-25T16:40:54.469Z,9.60
2018-12-25T16:43:23.412Z,11.17
2018-12-25T16:45:52.165Z,10.00
2018-12-25T16:48:20.873Z,9.50
2018-12-25T16:50:49.610Z,9.80
2018-12-25T16:53:18.677Z,9.47
2018-12-25T16:55:47.641Z,10.13
2018-12-25T16:58:16.621Z,9.70
2018-12-25T17:00:45.377Z,10.20
2018-12-25T17:03:14.333Z,10.40
2018-12-25T17:05:43.290Z,9.60
2018-12-25T17:08:12.506Z,9.63
2018-12-25T17:10:41.712Z,9.73
2018-12-25T17:13:10.702Z,9.70
2018-12-25T17:15:39.653Z,9.50
2018-12-25T17:18:09.590Z,9.67
2018-12-25T17:20:38.618Z,10.43
2018-12-25T17:23:07.350Z,10.27
2018-12-25T17:25:36.365Z,10.90
2018-12-25T17:28:05.193Z,10.00
2018-12-25T17:30:34.139Z,9.83
2018-12-25T17:33:02.868Z,10.40
2018-12-25T17:35:31.658Z,9.67
2018-12-25T17:38:00.409Z,9.90
2018-12-25T17:40:29.153Z,8.97
2018-12-25T17:42:57.940Z,10.50
2018-12-25T17:45:27.145Z,9.77
2018-12-25T17:47:56.116Z,10.43
2018-12-25T17:50:24.865Z,11.40
2018-12-25T17:52:53.604Z,11.30
2018-12-25T17:55:22.391Z,11.00
2018-12-25T17:57:51.368Z,11.30
2018-12-25T18:00:20.565Z,11.73
2018-12-25T18:02:49.509Z,11.17
2018-12-25T18:05:18.307Z,13.00
2018-12-25T18:07:47.245Z,14.23
2018-12-25T18:10:16.210Z,17.90
2018-12-25T18:12:44.958Z,16.13
2018-12-25T18:15:13.666Z,14.87
2018-12-25T18:17:42.377Z,12.43
2018-12-25T18:20:11.141Z,11.80
2018-12-25T18:22:39.875Z,13.83
2018-12-25T18:25:08.629Z,11.70
2018-12-25T18:27:37.369Z,14.43
2018-12-25T18:30:06.882Z,17.40
2018-12-25T18:32:35.630Z,15.93
2018-12-25T18:35:04.830Z,16.90
2018-12-25T18:37:33.805Z,17.93
2018-12-25T18:40:02.898Z,12.93
2018-12-25T18:42:31.910Z,12.03
2018-12-25T18:45:00.644Z,12.40
2018-12-25T18:47:48.600Z,14.23
2018-12-25T18:50:17.594Z,14.90
2018-12-25T18:52:46.581Z,17.30
2018-12-25T18:55:15.293Z,19.90
2018-12-25T18:57:44.039Z,18.37
2018-12-25T19:00:13.218Z,14.97
2018-12-25T19:02:41.958Z,14.00
2018-12-25T19:05:10.781Z,11.00
2018-12-25T19:07:39.517Z,12.77
2018-12-25T19:10:09.830Z,12.33
2018-12-25T19:12:38.801Z,11.70
2018-12-25T19:15:25.015Z,13.90
2018-12-25T19:17:55.737Z,14.10
2018-12-25T19:20:24.684Z,16.53
2018-12-25T19:22:53.697Z,14.63
2018-12-25T19:25:23.154Z,17.80
2018-12-25T19:27:51.905Z,13.80
2018-12-25T19:30:23.581Z,14.40
2018-12-25T19:32:52.794Z,13.20
2018-12-25T19:35:21.573Z,16.00
2018-12-25T19:37:50.313Z,14.53
2018-12-25T19:40:19.553Z,18.73
2018-12-25T19:42:48.598Z,17.83
2018-12-25T19:45:19.689Z,19.67
2018-12-25T19:47:48.506Z,22.00
2018-12-25T19:50:17.325Z,15.13
2018-12-25T19:52:46.045Z,15.40
2018-12-25T19:55:15.070Z,16.83
2018-12-25T19:57:44.142Z,16.67
2018-12-25T20:00:14.361Z,14.60
2018-12-25T20:02:45.211Z,14.10
2018-12-25T20:05:46.302Z,16.63
2018-12-25T20:08:45.258Z,15.13
2018-12-25T20:11:58.492Z,15.93
2018-12-25T20:15:10.898Z,15.67
2018-12-25T20:18:17.029Z,15.97
2018-12-25T20:21:36.260Z,15.37
2018-12-25T20:24:33.477Z,15.03
2018-12-25T20:27:39.422Z,16.20
2018-12-25T20:30:55.729Z,16.57
2018-12-25T20:34:01.951Z,14.47
2018-12-25T20:37:06.789Z,15.17
2018-12-25T20:40:18.559Z,14.93
2018-12-25T20:43:43.594Z,16.40
2018-12-25T20:46:42.411Z,15.00
2018-12-25T20:49:58.902Z,14.37
2018-12-25T20:52:52.289Z,15.10
2018-12-25T20:55:48.288Z,14.97
2018-12-25T20:58:52.221Z,14.80
2018-12-25T21:01:43.741Z,14.33
2018-12-25T21:04:40.501Z,15.43
2018-12-25T21:07:44.631Z,14.90
2018-12-25T21:10:49.728Z,15.20
2018-12-25T21:13:47.984Z,16.77
2018-12-25T21:16:47.105Z,15.60
2018-12-25T21:19:55.972Z,14.60
2018-12-25T21:23:00.847Z,15.60
2018-12-25T21:26:05.900Z,14.63
2018-12-25T21:28:34.687Z,14.60
2018-12-25T21:31:04.412Z,16.23
2018-12-25T21:33:33.444Z,15.43
2018-12-25T21:36:02.252Z,14.90
2018-12-25T21:38:31.220Z,15.00
2018-12-25T21:41:00.965Z,15.10
2018-12-25T21:43:30.638Z,14.90
2018-12-25T21:45:59.421Z,14.57
2018-12-25T21:48:28.471Z,14.43
2018-12-25T21:50:57.503Z,16.20
2018-12-25T21:53:26.758Z,15.57
2018-12-25T21:55:55.890Z,16.43
2018-12-25T21:58:24.861Z,14.60
2018-12-25T22:00:53.662Z,14.63
2018-12-25T22:03:22.402Z,15.40
2018-12-25T22:05:51.104Z,13.80
2018-12-25T22:08:19.913Z,14.80
2018-12-25T22:10:48.676Z,15.57
2018-12-25T22:13:17.637Z,16.10
2018-12-25T22:15:46.614Z,15.40
2018-12-25T22:18:15.355Z,14.97
2018-12-25T22:20:44.309Z,14.40
2018-12-25T22:23:13.799Z,14.43
2018-12-25T22:25:42.535Z,15.00
2018-12-25T22:28:11.887Z,14.87
2018-12-25T22:30:40.901Z,13.97
2018-12-25T22:33:09.636Z,13.60
2018-12-25T22:35:38.352Z,14.13
2018-12-25T22:38:07.357Z,13.53
2018-12-25T22:40:36.076Z,14.20
2018-12-25T22:43:04.792Z,12.93
2018-12-25T22:45:33.534Z,13.53
2018-12-25T22:48:02.255Z,14.93
2018-12-25T22:50:31.027Z,15.10
2018-12-25T22:53:00.277Z,13.10
2018-12-25T22:55:35.843Z,14.03
2018-12-25T22:58:00.521Z,13.67
2018-12-25T23:00:29.504Z,14.33
2018-12-25T23:02:58.249Z,13.33
2018-12-25T23:05:26.963Z,13.67
2018-12-25T23:07:55.966Z,13.27
2018-12-25T23:10:25.193Z,13.60
2018-12-25T23:12:54.177Z,13.70
2018-12-25T23:15:22.893Z,12.70
2018-12-25T23:17:51.609Z,13.73
2018-12-25T23:20:28.449Z,12.40
2018-12-25T23:22:50.805Z,13.20
2018-12-25T23:25:19.518Z,12.73
2018-12-25T23:27:48.746Z,13.47
2018-12-25T23:30:17.473Z,13.17
2018-12-25T23:32:46.214Z,14.10
2018-12-25T23:35:14.937Z,13.07
2018-12-25T23:37:43.744Z,12.97
2018-12-25T23:40:12.477Z,14.87
2018-12-25T23:42:41.681Z,12.63
2018-12-25T23:45:10.421Z,13.17
2018-12-25T23:47:39.634Z,12.67
2018-12-25T23:50:08.449Z,14.00
2018-12-25T23:52:37.161Z,13.17
2018-12-25T23:55:06.045Z,12.17
2018-12-25T23:57:34.821Z,12.07
